»·PEaware :: PSV40F KCOS-KASE

PSV40F :: KCOS-KASE

FLIGHT INFORMATION

Flight Status: Arrived
Operator:
Power Set Virtual (website)
More flights by this operator :: More flights under this callsign
Pilot: Pratham R. (19019)
Aircraft: SOCATA TBM-900
(TBM9)
More flights by this aircraft type
Origin: KCOS City Of Colorado Springs Mun
United States
Destination: KASE Aspen-Pitkin Co/Sardy
United States
More flights between these airports :: More routes between these airports
Route: +COS6 BRK FQF J80 DBL
File this flight plan on PilotEdge
Remarks: RMK / SIMBRIEF
Altitude:
(Current/Filed)
20,000ft
Speed:
(Current/Filed)
317kts
Departed: 07-Apr-20 08:06 PM
Arrived: 07-Apr-20 08:51 PM
Distance/Time
Traveled:
104nm/0:45
Distance/Time
To Go:
Arrived

Flight Plot

Page will automatically refresh every two minutes.

Flight plan parsing failed; only flown route is shown


Map Options




Map Legend


Flown Route
Filed Route
Departure Airport
Arrival Airport
Navaid (VOR, NDB)
Fix

Horizontal Profiles

Position Reports

Time Latitude Longitude Heading Altitude Ground
Speed
07-Apr-20 19:49 38.808136 -104.720444 359 6087ft 0kts
07-Apr-20 19:50 38.808136 -104.720444 359 6087ft 0kts
07-Apr-20 19:51 38.808136 -104.720444 359 6087ft 0kts
07-Apr-20 19:52 38.808136 -104.720444 359 6087ft 0kts
07-Apr-20 19:53 38.808136 -104.720444 359 6087ft 0kts
07-Apr-20 19:54 38.808136 -104.720444 359 6087ft 0kts
07-Apr-20 19:55 38.808136 -104.720444 359 6087ft 0kts
07-Apr-20 19:56 38.808136 -104.720444 359 6087ft 0kts
07-Apr-20 19:57 38.808136 -104.720444 359 6087ft 0kts
07-Apr-20 19:58 38.809273 -104.719736 62 6093ft 4kts
07-Apr-20 19:59 38.805032 -104.719585 179 6080ft 20kts
07-Apr-20 20:00 38.803439 -104.717399 143 6078ft 10kts
07-Apr-20 20:01 38.797085 -104.717372 181 6055ft 21kts
07-Apr-20 20:02 38.794127 -104.717203 154 6051ft 2kts
07-Apr-20 20:03 38.794386 -104.715923 359 6053ft 0kts
07-Apr-20 20:04 38.794386 -104.715923 359 6053ft 0kts
07-Apr-20 20:05 38.814200 -104.716026 356 6581ft 134kts
07-Apr-20 20:06 38.853656 -104.716553 357 8669ft 145kts
07-Apr-20 20:07 38.898528 -104.717162 358 10193ft 175kts
07-Apr-20 20:08 38.947617 -104.712891 2 11864ft 179kts
07-Apr-20 20:09 38.996904 -104.710102 357 13868ft 170kts
07-Apr-20 20:10 39.045127 -104.704160 357 15512ft 187kts
07-Apr-20 20:11 39.098244 -104.697411 356 17026ft 201kts
07-Apr-20 20:13 39.161066 -104.689438 358 17035ft 254kts
07-Apr-20 20:14 39.235939 -104.679780 359 17014ft 270kts
07-Apr-20 20:15 39.311913 -104.669989 359 16982ft 275kts
07-Apr-20 20:16 39.386559 -104.660284 358 17835ft 250kts
07-Apr-20 20:17 39.451235 -104.651858 355 19719ft 213kts
07-Apr-20 20:18 39.515994 -104.643664 357 20074ft 256kts
07-Apr-20 20:19 39.590235 -104.633995 357 20057ft 275kts
07-Apr-20 20:20 39.667693 -104.626256 339 20024ft 269kts
07-Apr-20 20:21 39.683032 -104.705013 263 20054ft 252kts
07-Apr-20 20:22 39.673396 -104.796040 264 20052ft 253kts
07-Apr-20 20:23 39.664017 -104.887330 264 20055ft 253kts
07-Apr-20 20:24 39.654658 -104.978086 263 20052ft 254kts
07-Apr-20 20:25 39.645398 -105.067017 262 20049ft 254kts
07-Apr-20 20:26 39.635731 -105.158944 262 20047ft 255kts
07-Apr-20 20:27 39.626011 -105.250703 262 20045ft 255kts
07-Apr-20 20:28 39.616263 -105.342129 262 20044ft 255kts
07-Apr-20 20:29 39.606434 -105.433654 262 20065ft 254kts
07-Apr-20 20:30 39.596558 -105.524875 262 20093ft 254kts
07-Apr-20 20:31 39.586610 -105.616088 262 20113ft 254kts
07-Apr-20 20:32 39.576694 -105.706322 261 20160ft 254kts
07-Apr-20 20:32 39.568289 -105.782343 261 20201ft 254kts
07-Apr-20 20:34 39.556426 -105.888824 261 20246ft 255kts
07-Apr-20 20:35 39.546148 -105.980313 261 20248ft 255kts
07-Apr-20 20:35 39.537567 -106.056236 261 20250ft 255kts
07-Apr-20 20:36 39.527141 -106.147830 261 20253ft 255kts
07-Apr-20 20:38 39.514899 -106.254562 261 20254ft 255kts
07-Apr-20 20:38 39.506051 -106.331169 261 20253ft 255kts
07-Apr-20 20:39 39.495665 -106.420386 261 20228ft 255kts
07-Apr-20 20:41 39.483231 -106.526659 261 20005ft 248kts
07-Apr-20 20:41 39.474967 -106.596589 262 18463ft 228kts
07-Apr-20 20:42 39.465056 -106.680229 261 16927ft 241kts
07-Apr-20 20:43 39.455376 -106.761308 261 16162ft 197kts
07-Apr-20 20:44 39.446378 -106.836375 261 14427ft 213kts
07-Apr-20 20:45 39.421183 -106.891651 188 14051ft 212kts
07-Apr-20 20:46 39.361697 -106.886647 181 12812ft 192kts
07-Apr-20 20:47 39.308091 -106.879514 176 11017ft 197kts
07-Apr-20 20:48 39.260996 -106.880811 192 9134ft 122kts
07-Apr-20 20:49 39.232381 -106.873255 161 7897ft 95kts
07-Apr-20 20:50 39.223471 -106.868891 141 7837ft 5kts
07-Apr-20 20:51 39.223952 -106.867602 91 7837ft 2kts
07-Apr-20 20:52 39.223755 -106.867355 236 7837ft 0kts
07-Apr-20 20:53 39.223755 -106.867355 236 7837ft 0kts

Navigation Log

Ident Type
Flight plan parsing failed, navigation log unavailable